createdAt,value
2022-12-19T00:01:38.179Z,101262.72
2022-12-19T00:04:08.791Z,101255.81
2022-12-19T00:06:41.909Z,101250.84
2022-12-19T00:09:11.627Z,101247.38
2022-12-19T00:11:39.946Z,101238.34
2022-12-19T00:14:07.775Z,101235.03
2022-12-19T00:16:34.672Z,101240.28
2022-12-19T00:19:02.180Z,101239.38
2022-12-19T00:21:34.769Z,101235.09
2022-12-19T00:24:03.719Z,101236.09
2022-12-19T00:26:36.900Z,101228.00
2022-12-19T00:29:14.106Z,101222.00
2022-12-19T00:31:41.119Z,101233.56
2022-12-19T00:34:09.203Z,101230.16
2022-12-19T00:36:36.440Z,101218.09
2022-12-19T00:39:07.785Z,101225.06
2022-12-19T00:41:36.385Z,101211.47
2022-12-19T00:44:05.794Z,101211.69
2022-12-19T00:46:34.806Z,101201.94
2022-12-19T00:49:02.110Z,101205.78
2022-12-19T00:51:32.577Z,101208.00
2022-12-19T00:53:59.508Z,101201.50
2022-12-19T00:56:37.960Z,101194.81
2022-12-19T00:59:06.924Z,101205.38
2022-12-19T01:01:38.203Z,101209.38
2022-12-19T01:06:58.888Z,101217.06
2022-12-19T01:09:32.991Z,101207.88
2022-12-19T01:12:18.417Z,101206.50
2022-12-19T01:14:45.080Z,101217.34
2022-12-19T01:17:12.541Z,101200.13
2022-12-19T01:19:44.028Z,101188.31
2022-12-19T01:22:13.161Z,101191.59
2022-12-19T01:24:40.204Z,101192.47
2022-12-19T01:27:08.135Z,101184.91
2022-12-19T01:29:36.686Z,101183.13
2022-12-19T01:32:12.585Z,101180.31
2022-12-19T01:34:39.143Z,101181.09
2022-12-19T01:37:05.708Z,101176.28
2022-12-19T01:39:32.261Z,101166.38
2022-12-19T01:42:01.426Z,101172.78
2022-12-19T01:44:28.434Z,101163.56
2022-12-19T01:47:00.347Z,101157.84
2022-12-19T01:49:34.370Z,101164.00
2022-12-19T01:52:04.881Z,101155.69
2022-12-19T01:54:37.142Z,101165.34
2022-12-19T01:57:10.573Z,101157.50
2022-12-19T01:59:42.308Z,101143.22
2022-12-19T02:02:31.442Z,101131.00
2022-12-19T02:04:58.068Z,101126.16
2022-12-19T02:07:26.205Z,101131.97
2022-12-19T02:09:57.364Z,101125.38
2022-12-19T02:12:36.521Z,101114.84
2022-12-19T02:15:05.393Z,101109.91
2022-12-19T02:17:54.971Z,101101.38
2022-12-19T02:20:47.992Z,101098.63
2022-12-19T02:23:36.119Z,101104.38
2022-12-19T02:26:26.827Z,101099.06
2022-12-19T02:28:58.800Z,101095.28
2022-12-19T02:31:25.419Z,101093.09
2022-12-19T02:34:16.381Z,101080.75
2022-12-19T02:37:02.492Z,101077.59
2022-12-19T02:39:41.242Z,101073.56
2022-12-19T02:42:11.192Z,101073.31
2022-12-19T02:44:47.266Z,101079.72
2022-12-19T02:47:16.741Z,101076.63
2022-12-19T02:49:43.306Z,101069.69
2022-12-19T02:52:32.919Z,101083.88
2022-12-19T02:55:06.214Z,101078.59
2022-12-19T02:57:58.224Z,101075.88
2022-12-19T03:00:27.951Z,101071.13
2022-12-19T03:03:21.993Z,101069.47
2022-12-19T03:06:06.517Z,101066.31
2022-12-19T03:08:58.088Z,101058.28
2022-12-19T03:11:28.420Z,101061.59
2022-12-19T03:14:01.834Z,101055.75
2022-12-19T03:16:29.111Z,101048.59
2022-12-19T03:18:56.811Z,101056.19
2022-12-19T03:21:29.334Z,101052.50
2022-12-19T03:23:57.709Z,101049.66
2022-12-19T03:26:29.047Z,101063.91
2022-12-19T03:29:09.112Z,101046.56
2022-12-19T03:31:37.929Z,101042.53
2022-12-19T03:34:26.601Z,101035.94
2022-12-19T03:36:57.367Z,101036.41
2022-12-19T03:39:26.316Z,101037.56
2022-12-19T03:42:13.089Z,101040.38
2022-12-19T03:44:42.479Z,101029.75
2022-12-19T03:47:24.433Z,101035.28
2022-12-19T03:49:51.761Z,101034.47
2022-12-19T03:52:35.724Z,101031.88
2022-12-19T03:55:12.284Z,101035.06
2022-12-19T03:57:47.872Z,101023.53
2022-12-19T04:00:17.439Z,101020.97
2022-12-19T04:02:47.745Z,101017.13
2022-12-19T04:05:19.326Z,101012.00
2022-12-19T04:07:48.036Z,101018.69
2022-12-19T04:10:18.420Z,101006.47
2022-12-19T04:12:58.284Z,100993.41
2022-12-19T04:15:35.015Z,100996.28
2022-12-19T04:18:06.581Z,100981.31
2022-12-19T04:20:36.807Z,100974.19
2022-12-19T04:23:21.340Z,100978.56
2022-12-19T04:25:52.310Z,100980.69
2022-12-19T04:28:25.495Z,100981.09
2022-12-19T04:30:53.843Z,100977.25
2022-12-19T04:33:20.606Z,100962.63
2022-12-19T04:35:47.238Z,100955.66
2022-12-19T04:38:13.947Z,100962.34
2022-12-19T04:40:41.684Z,100958.91
2022-12-19T04:43:09.343Z,100952.38
2022-12-19T04:45:36.725Z,100951.53
2022-12-19T04:48:03.949Z,100947.28
2022-12-19T04:50:32.812Z,100943.44
2022-12-19T04:52:59.627Z,100936.25
2022-12-19T04:55:26.678Z,100938.88
2022-12-19T04:57:53.241Z,100931.78
2022-12-19T05:00:19.925Z,100923.97
2022-12-19T05:02:46.671Z,100924.00
2022-12-19T05:05:13.392Z,100925.66
2022-12-19T05:07:40.623Z,100914.28
2022-12-19T05:10:07.860Z,100911.91
2022-12-19T05:12:34.472Z,100898.22
2022-12-19T05:15:01.673Z,100900.69
2022-12-19T05:17:28.234Z,100887.94
2022-12-19T05:19:54.798Z,100894.72
2022-12-19T05:22:22.000Z,100888.97
2022-12-19T05:24:48.547Z,100871.91
2022-12-19T05:27:15.146Z,100870.28
2022-12-19T05:29:41.858Z,100858.53
2022-12-19T05:32:08.539Z,100851.84
2022-12-19T05:34:35.178Z,100857.16
2022-12-19T05:37:03.452Z,100853.06
2022-12-19T05:39:30.429Z,100855.19
2022-12-19T05:41:57.028Z,100857.47
2022-12-19T05:44:24.624Z,100847.31
2022-12-19T05:46:51.680Z,100856.19
2022-12-19T05:49:18.463Z,100855.84
2022-12-19T05:51:45.338Z,100858.13
2022-12-19T05:54:11.901Z,100858.91
2022-12-19T05:56:38.461Z,100861.38
2022-12-19T05:59:05.119Z,100858.84
2022-12-19T06:01:32.605Z,100862.00
2022-12-19T06:03:59.209Z,100858.06
2022-12-19T06:06:26.870Z,100857.84
2022-12-19T06:08:58.344Z,100855.66
2022-12-19T06:11:26.861Z,100861.59
2022-12-19T06:13:54.065Z,100868.47
2022-12-19T06:16:22.595Z,100863.03
2022-12-19T06:18:49.322Z,100862.53
2022-12-19T06:21:18.489Z,100866.44
2022-12-19T06:23:45.830Z,100857.06
2022-12-19T06:26:19.125Z,100855.19
2022-12-19T06:28:48.084Z,100854.00
2022-12-19T06:31:15.045Z,100847.13
2022-12-19T06:33:41.717Z,100845.25
2022-12-19T06:36:13.660Z,100838.53
2022-12-19T06:38:40.473Z,100852.38
2022-12-19T06:41:25.982Z,100839.38
2022-12-19T06:43:53.844Z,100836.31
2022-12-19T06:46:20.855Z,100831.94
2022-12-19T06:48:47.853Z,100834.56
2022-12-19T06:51:14.517Z,100832.56
2022-12-19T06:53:41.100Z,100829.72
2022-12-19T06:56:08.342Z,100833.72
2022-12-19T06:58:35.046Z,100829.25
2022-12-19T07:01:01.826Z,100823.25
2022-12-19T07:03:38.011Z,100822.19
2022-12-19T07:06:05.687Z,100813.47
2022-12-19T07:08:33.270Z,100817.13
2022-12-19T07:11:00.111Z,100816.94
2022-12-19T07:13:27.400Z,100806.75
2022-12-19T07:15:57.442Z,100814.66
2022-12-19T07:18:24.062Z,100815.09
2022-12-19T07:20:50.735Z,100814.88
2022-12-19T07:23:20.373Z,100806.16
2022-12-19T07:25:47.014Z,100813.47
2022-12-19T07:28:14.582Z,100814.19
2022-12-19T07:30:41.259Z,100812.84
2022-12-19T07:33:10.947Z,100816.69
2022-12-19T07:35:38.494Z,100816.75
2022-12-19T07:38:06.688Z,100808.34
2022-12-19T07:40:33.797Z,100811.34
2022-12-19T07:43:05.683Z,100812.81
2022-12-19T07:45:33.132Z,100811.41
2022-12-19T07:48:01.522Z,100813.84
2022-12-19T07:50:28.939Z,100818.16
2022-12-19T07:52:56.978Z,100821.88
2022-12-19T07:55:23.615Z,100812.09
2022-12-19T07:57:50.784Z,100826.22
2022-12-19T08:00:18.473Z,100813.13
2022-12-19T08:02:45.893Z,100820.81
2022-12-19T08:05:12.656Z,100811.81
2022-12-19T08:07:39.719Z,100819.53
2022-12-19T08:10:06.984Z,100817.44
2022-12-19T08:12:34.281Z,100811.94
2022-12-19T08:15:01.339Z,100802.88
2022-12-19T08:17:28.283Z,100795.22
2022-12-19T08:19:54.860Z,100806.53
2022-12-19T08:22:21.439Z,100796.31
2022-12-19T08:24:48.146Z,100804.72
2022-12-19T08:27:16.530Z,100800.72
2022-12-19T08:29:43.063Z,100791.63
2022-12-19T08:32:09.643Z,100789.47
2022-12-19T08:34:36.193Z,100787.50
2022-12-19T08:37:02.914Z,100787.53
2022-12-19T08:39:29.468Z,100789.63
2022-12-19T08:41:56.529Z,100789.56
2022-12-19T08:44:23.201Z,100787.94
2022-12-19T08:46:50.641Z,100793.47
2022-12-19T08:49:19.937Z,100790.25
2022-12-19T08:51:46.828Z,100786.63
2022-12-19T08:54:13.375Z,100795.03
2022-12-19T08:56:42.848Z,100785.63
2022-12-19T08:59:13.714Z,100789.56
2022-12-19T09:01:42.828Z,100796.34
2022-12-19T09:05:31.364Z,100777.31
2022-12-19T09:06:56.526Z,100783.13
2022-12-19T09:09:23.100Z,100765.66
2022-12-19T09:11:49.775Z,100763.31
2022-12-19T09:14:20.972Z,100771.59
2022-12-19T09:16:48.601Z,100775.28
2022-12-19T09:19:16.380Z,100770.25
2022-12-19T09:21:43.292Z,100773.97
2022-12-19T09:24:10.610Z,100781.09
2022-12-19T09:26:39.258Z,100771.03
2022-12-19T09:29:11.017Z,100770.56
2022-12-19T09:31:46.929Z,100777.53
2022-12-19T09:34:14.029Z,100776.88
2022-12-19T09:36:40.907Z,100768.00
2022-12-19T09:39:07.786Z,100772.75
2022-12-19T09:41:45.046Z,100762.03
2022-12-19T09:44:29.994Z,100761.22
2022-12-19T09:47:00.898Z,100753.47
2022-12-19T09:49:48.145Z,100765.59
2022-12-19T09:52:29.762Z,100762.44
2022-12-19T09:55:19.951Z,100756.72
2022-12-19T09:58:01.590Z,100750.59
2022-12-19T10:00:40.195Z,100749.78
2022-12-19T10:03:21.945Z,100754.34
2022-12-19T10:07:11.069Z,100733.03
2022-12-19T10:09:18.925Z,100743.47
2022-12-19T10:12:36.579Z,100740.81
2022-12-19T10:15:01.844Z,100737.06
2022-12-19T10:17:34.423Z,100743.56
2022-12-19T10:20:03.623Z,100737.06
2022-12-19T10:22:54.248Z,100729.84
2022-12-19T10:25:58.759Z,100728.81
2022-12-19T10:28:42.983Z,100732.16
2022-12-19T10:31:21.447Z,100720.56
2022-12-19T10:34:12.990Z,100718.66
2022-12-19T10:39:41.213Z,100714.78
2022-12-19T10:42:33.236Z,100725.16
2022-12-19T10:45:05.745Z,100715.56
2022-12-19T10:47:32.320Z,100708.06
2022-12-19T10:50:03.875Z,100723.78
2022-12-19T10:52:45.954Z,100715.56
2022-12-19T10:55:41.313Z,100703.50
2022-12-19T10:58:26.411Z,100706.78
2022-12-19T11:01:10.158Z,100703.38
2022-12-19T11:03:38.807Z,100696.00
2022-12-19T11:06:06.402Z,100688.44
2022-12-19T11:08:35.682Z,100687.31
2022-12-19T11:13:00.324Z,100685.59
2022-12-19T11:17:38.234Z,100688.44
2022-12-19T11:22:22.755Z,100691.53
2022-12-19T11:29:16.069Z,100680.09
2022-12-19T11:29:39.513Z,100684.03
2022-12-19T11:30:40.968Z,100678.38
2022-12-19T11:30:46.605Z,100677.97
2022-12-19T11:34:21.410Z,100673.56
2022-12-19T11:37:19.266Z,100672.88
2022-12-19T11:40:01.229Z,100680.72
2022-12-19T11:43:25.463Z,100665.03
2022-12-19T11:46:11.384Z,100677.34
2022-12-19T11:48:48.004Z,100676.38
2022-12-19T11:51:20.927Z,100684.22
2022-12-19T11:53:53.206Z,100674.66
2022-12-19T11:56:23.295Z,100676.44
2022-12-19T11:58:56.609Z,100670.97
2022-12-19T12:01:29.265Z,100676.03
2022-12-19T12:04:19.645Z,100676.03
2022-12-19T12:06:50.837Z,100666.03
2022-12-19T12:10:44.424Z,100660.13
2022-12-19T12:20:25.298Z,100662.31
2022-12-19T12:28:19.519Z,100652.41
2022-12-19T12:31:22.093Z,100642.53
2022-12-19T12:31:30.963Z,100651.44
2022-12-19T12:31:42.780Z,100649.31
2022-12-19T12:31:44.728Z,100652.75
2022-12-19T12:32:01.912Z,100644.75
2022-12-19T12:35:56.946Z,100640.56
2022-12-19T12:40:23.655Z,100631.06
2022-12-19T12:43:23.063Z,100622.59
2022-12-19T12:45:49.759Z,100628.63
2022-12-19T12:48:42.951Z,100628.34
2022-12-19T12:51:11.005Z,100629.75
2022-12-19T12:53:42.771Z,100627.22
2022-12-19T12:56:12.417Z,100625.09
2022-12-19T12:58:43.369Z,100618.59
2022-12-19T13:01:33.023Z,100631.97
2022-12-19T13:04:25.769Z,100635.09
2022-12-19T13:06:52.328Z,100632.38
2022-12-19T13:09:27.804Z,100631.28
2022-12-19T13:12:21.205Z,100642.00
2022-12-19T13:14:50.447Z,100637.44
2022-12-19T13:17:32.291Z,100636.59
2022-12-19T13:20:04.675Z,100635.34
2022-12-19T13:22:32.287Z,100644.88
2022-12-19T13:25:00.705Z,100637.84
2022-12-19T13:27:40.716Z,100638.13
2022-12-19T13:30:07.998Z,100640.97
2022-12-19T13:32:40.483Z,100641.69
2022-12-19T13:36:47.768Z,100640.22
2022-12-19T13:39:54.779Z,100640.06
2022-12-19T13:41:30.723Z,100636.69
2022-12-19T13:43:59.850Z,100638.09
2022-12-19T13:46:38.393Z,100632.84
2022-12-19T13:49:34.375Z,100631.22
2022-12-19T13:52:02.952Z,100637.88
2022-12-19T13:54:34.725Z,100636.41
2022-12-19T13:57:04.210Z,100639.16
2022-12-19T13:59:38.905Z,100635.84
2022-12-19T14:02:10.852Z,100637.75
2022-12-19T14:04:40.443Z,100632.84
2022-12-19T14:07:41.321Z,100627.88
2022-12-19T14:11:34.297Z,100621.66
2022-12-19T14:13:48.868Z,100629.34
2022-12-19T14:16:18.658Z,100626.47
2022-12-19T14:18:50.227Z,100617.69
2022-12-19T14:22:05.227Z,100628.47
2022-12-19T14:24:28.644Z,100625.06
2022-12-19T14:28:25.853Z,100625.00
2022-12-19T14:30:30.533Z,100624.16
2022-12-19T14:33:40.605Z,100624.13
2022-12-19T14:36:10.095Z,100628.06
2022-12-19T14:39:24.522Z,100626.16
2022-12-19T14:41:50.875Z,100618.31
2022-12-19T14:51:09.061Z,100625.72
2022-12-19T14:52:25.699Z,100622.47
2022-12-19T14:54:13.815Z,100618.50
2022-12-19T14:54:50.381Z,100617.28
2022-12-19T14:56:16.821Z,100619.69
2022-12-19T14:58:53.139Z,100613.22
2022-12-19T15:01:27.782Z,100616.00
2022-12-19T15:04:48.046Z,100612.47
2022-12-19T15:07:06.813Z,100624.22
2022-12-19T15:11:06.498Z,100603.72
2022-12-19T15:14:47.964Z,100604.25
2022-12-19T15:16:05.837Z,100598.00
2022-12-19T15:18:32.483Z,100600.47
2022-12-19T15:21:01.730Z,100601.69
2022-12-19T15:23:29.398Z,100614.03
2022-12-19T15:26:05.113Z,100608.19
2022-12-19T15:28:41.295Z,100597.94
2022-12-19T15:31:27.487Z,100594.44
2022-12-19T15:36:41.235Z,100592.75
2022-12-19T15:39:07.847Z,100587.69
2022-12-19T15:41:34.674Z,100591.66
2022-12-19T15:44:13.630Z,100589.41
2022-12-19T15:46:46.628Z,100588.50
2022-12-19T15:49:19.835Z,100584.28
2022-12-19T15:51:46.724Z,100581.84
2022-12-19T15:56:59.815Z,100578.50
2022-12-19T15:59:38.026Z,100581.66
2022-12-19T16:02:18.219Z,100578.50
2022-12-19T16:04:46.597Z,100580.63
2022-12-19T16:07:16.117Z,100578.47
2022-12-19T16:09:42.827Z,100569.28
2022-12-19T16:12:15.382Z,100571.38
2022-12-19T16:14:42.500Z,100571.00
2022-12-19T16:17:16.915Z,100559.00
2022-12-19T16:19:43.668Z,100567.22
2022-12-19T16:22:19.590Z,100564.50
2022-12-19T16:24:46.844Z,100559.00
2022-12-19T16:27:28.940Z,100567.03
2022-12-19T16:29:56.969Z,100564.34
2022-12-19T16:32:24.600Z,100555.31
2022-12-19T16:34:52.313Z,100551.06
2022-12-19T16:37:18.948Z,100547.81
2022-12-19T16:39:45.928Z,100546.31
2022-12-19T16:42:17.598Z,100554.53
2022-12-19T16:44:48.041Z,100548.16
2022-12-19T16:47:17.577Z,100544.66
2022-12-19T16:49:44.973Z,100556.53
2022-12-19T16:52:11.845Z,100558.69
2022-12-19T16:54:38.401Z,100549.81
2022-12-19T16:57:15.751Z,100545.88
2022-12-19T16:59:42.359Z,100543.72
2022-12-19T17:02:37.679Z,100545.41
2022-12-19T17:05:04.715Z,100546.97
2022-12-19T17:07:32.446Z,100543.94
2022-12-19T17:09:59.034Z,100540.34
2022-12-19T17:12:27.071Z,100538.63
2022-12-19T17:14:54.030Z,100547.81
2022-12-19T17:17:20.656Z,100549.03
2022-12-19T17:19:47.382Z,100542.25
2022-12-19T17:22:16.349Z,100553.59
2022-12-19T17:24:47.903Z,100553.00
2022-12-19T17:27:17.321Z,100555.53
2022-12-19T17:29:44.401Z,100565.53
2022-12-19T17:32:23.239Z,100552.88
2022-12-19T17:34:52.725Z,100565.19
2022-12-19T17:37:19.795Z,100559.66
2022-12-19T17:39:48.349Z,100572.59
2022-12-19T17:42:21.552Z,100555.47
2022-12-19T17:44:48.134Z,100552.84
2022-12-19T17:47:16.305Z,100557.63
2022-12-19T17:49:43.191Z,100556.16
2022-12-19T17:52:15.187Z,100574.59
2022-12-19T17:54:42.392Z,100573.63
2022-12-19T17:57:13.680Z,100578.72
2022-12-19T17:59:41.729Z,100569.81
2022-12-19T18:02:22.932Z,100562.31
2022-12-19T18:04:51.080Z,100576.66
2022-12-19T18:07:19.236Z,100587.63
2022-12-19T18:09:46.809Z,100580.13
2022-12-19T18:12:14.023Z,100581.25
2022-12-19T18:14:40.654Z,100577.75
2022-12-19T18:17:07.458Z,100564.34
2022-12-19T18:19:34.655Z,100560.84
2022-12-19T18:22:01.277Z,100567.03
2022-12-19T18:24:28.085Z,100555.56
2022-12-19T18:26:55.873Z,100549.38
2022-12-19T18:29:22.813Z,100559.50
2022-12-19T18:31:51.438Z,100561.72
2022-12-19T18:34:23.979Z,100567.84
2022-12-19T18:36:51.681Z,100553.97
2022-12-19T18:39:24.148Z,100571.00
2022-12-19T18:41:51.381Z,100568.56
2022-12-19T18:44:18.764Z,100575.03
2022-12-19T18:46:48.657Z,100568.09
2022-12-19T18:49:16.748Z,100565.84
2022-12-19T18:51:44.629Z,100562.66
2022-12-19T18:54:17.557Z,100567.56
2022-12-19T18:56:44.974Z,100580.94
2022-12-19T18:59:12.059Z,100583.56
2022-12-19T19:01:46.173Z,100583.66
2022-12-19T19:04:16.781Z,100581.28
2022-12-19T19:06:50.396Z,100580.41
2022-12-19T19:09:20.251Z,100570.97
2022-12-19T19:12:18.939Z,100575.28
2022-12-19T19:14:45.568Z,100573.16
2022-12-19T19:17:23.471Z,100561.50
2022-12-19T19:19:50.087Z,100571.81
2022-12-19T19:22:17.380Z,100574.88
2022-12-19T19:24:43.948Z,100578.72
2022-12-19T19:27:10.731Z,100578.75
2022-12-19T19:29:37.301Z,100568.06
2022-12-19T19:32:03.931Z,100560.84
2022-12-19T19:34:35.043Z,100564.41
2022-12-19T19:37:04.804Z,100566.13
2022-12-19T19:39:34.200Z,100575.22
2022-12-19T19:42:01.450Z,100577.16
2022-12-19T19:44:28.545Z,100583.31
2022-12-19T19:46:55.400Z,100590.91
2022-12-19T19:49:23.369Z,100578.38
2022-12-19T19:51:52.358Z,100580.19
2022-12-19T19:54:22.582Z,100571.13
2022-12-19T19:56:49.122Z,100570.72
2022-12-19T19:59:15.963Z,100572.97
2022-12-19T20:01:43.198Z,100567.03
2022-12-19T20:04:10.217Z,100570.25
2022-12-19T20:06:37.015Z,100561.34
2022-12-19T20:09:04.416Z,100565.06
2022-12-19T20:11:31.236Z,100557.78
2022-12-19T20:13:57.758Z,100542.25
2022-12-19T20:16:25.305Z,100547.41
2022-12-19T20:18:53.257Z,100557.13
2022-12-19T20:21:20.750Z,100556.19
2022-12-19T20:23:48.006Z,100558.41
2022-12-19T20:26:16.264Z,100562.88
2022-12-19T20:28:48.808Z,100574.25
2022-12-19T20:31:23.233Z,100567.25
2022-12-19T20:33:53.016Z,100572.47
2022-12-19T20:36:20.437Z,100566.91
2022-12-19T20:38:48.450Z,100560.13
2022-12-19T20:41:16.131Z,100561.59
2022-12-19T20:43:42.931Z,100552.88
2022-12-19T20:46:12.336Z,100554.47
2022-12-19T20:48:39.637Z,100559.91
2022-12-19T20:51:07.481Z,100571.22
2022-12-19T20:53:36.409Z,100575.34
2022-12-19T20:56:04.332Z,100584.75
2022-12-19T20:58:33.598Z,100576.66
2022-12-19T21:01:24.099Z,100579.69
2022-12-19T21:03:51.721Z,100606.75
2022-12-19T21:06:20.369Z,100597.06
2022-12-19T21:08:47.676Z,100596.75
2022-12-19T21:11:15.526Z,100585.94
2022-12-19T21:13:43.686Z,100587.44
2022-12-19T21:16:13.982Z,100589.44
2022-12-19T21:18:43.500Z,100591.53
2022-12-19T21:21:15.031Z,100592.56
2022-12-19T21:23:42.765Z,100595.16
2022-12-19T21:26:10.726Z,100588.63
2022-12-19T21:28:38.011Z,100580.41
2022-12-19T21:31:15.177Z,100584.88
2022-12-19T21:33:42.188Z,100582.38
2022-12-19T21:36:12.193Z,100589.09
2022-12-19T21:38:39.430Z,100596.38
2022-12-19T21:41:07.576Z,100591.28
2022-12-19T21:43:37.097Z,100592.66
2022-12-19T21:46:15.087Z,100577.28
2022-12-19T21:48:45.919Z,100575.22
2022-12-19T21:51:14.478Z,100576.53
2022-12-19T21:53:41.288Z,100574.09
2022-12-19T21:56:18.437Z,100583.09
2022-12-19T21:58:45.747Z,100574.38
2022-12-19T22:01:15.664Z,100570.66
2022-12-19T22:03:43.123Z,100567.09
2022-12-19T22:06:27.790Z,100561.31
2022-12-19T22:08:55.247Z,100566.47
2022-12-19T22:11:22.330Z,100565.16
2022-12-19T22:13:49.897Z,100563.03
2022-12-19T22:16:17.476Z,100574.47
2022-12-19T22:18:44.664Z,100562.03
2022-12-19T22:21:15.824Z,100566.06
2022-12-19T22:23:42.903Z,100575.59
2022-12-19T22:26:14.207Z,100579.19
2022-12-19T22:28:43.528Z,100579.81
2022-12-19T22:31:20.097Z,100574.47
2022-12-19T22:33:48.509Z,100571.22
2022-12-19T22:36:18.359Z,100571.38
2022-12-19T22:38:49.556Z,100574.59
2022-12-19T22:41:18.759Z,100576.16
2022-12-19T22:43:46.236Z,100575.84
2022-12-19T22:46:21.929Z,100572.81
2022-12-19T22:48:50.263Z,100579.59
2022-12-19T22:51:19.486Z,100580.41
2022-12-19T22:53:47.295Z,100579.34
2022-12-19T22:56:19.823Z,100579.28
2022-12-19T22:58:48.677Z,100568.47
2022-12-19T23:01:18.872Z,100573.75
2022-12-19T23:03:48.167Z,100566.41
2022-12-19T23:06:16.616Z,100568.97
2022-12-19T23:08:43.884Z,100565.31
2022-12-19T23:11:14.017Z,100562.56
2022-12-19T23:13:41.472Z,100559.66
2022-12-19T23:16:08.821Z,100552.38
2022-12-19T23:18:35.841Z,100553.22
2022-12-19T23:21:09.117Z,100546.97
2022-12-19T23:23:41.954Z,100536.81
2022-12-19T23:26:16.798Z,100534.53
2022-12-19T23:29:08.054Z,100540.34
2022-12-19T23:31:38.973Z,100543.06
2022-12-19T23:34:05.987Z,100532.72
2022-12-19T23:39:19.491Z,100539.56
2022-12-19T23:41:46.123Z,100554.06
2022-12-19T23:44:12.730Z,100547.91
2022-12-19T23:46:40.121Z,100542.75
2022-12-19T23:49:07.573Z,100544.28
2022-12-19T23:51:34.690Z,100536.41
2022-12-19T23:54:01.267Z,100514.72
2022-12-19T23:56:31.352Z,100530.16
2022-12-19T23:58:58.659Z,100533.41
